createdAt,value
2022-10-12T00:02:23.901Z,99.90
2022-10-12T00:04:50.717Z,99.90
2022-10-12T00:07:17.626Z,99.90
2022-10-12T00:09:44.465Z,99.90
2022-10-12T00:12:11.202Z,99.90
2022-10-12T00:14:38.600Z,99.90
2022-10-12T00:17:05.389Z,99.90
2022-10-12T00:19:32.274Z,99.90
2022-10-12T00:21:58.973Z,99.90
2022-10-12T00:24:25.877Z,99.90
2022-10-12T00:26:52.767Z,99.90
2022-10-12T00:29:19.468Z,99.90
2022-10-12T00:31:46.267Z,99.90
2022-10-12T00:34:13.037Z,99.90
2022-10-12T00:36:39.785Z,99.90
2022-10-12T00:39:10.031Z,99.90
2022-10-12T00:41:42.536Z,99.90
2022-10-12T00:44:46.100Z,99.90
2022-10-12T00:47:28.073Z,99.90
2022-10-12T00:50:15.626Z,99.90
2022-10-12T00:52:58.438Z,99.90
2022-10-12T00:55:30.383Z,99.90
2022-10-12T00:57:58.537Z,99.90
2022-10-12T01:00:26.593Z,99.90
2022-10-12T01:02:55.518Z,99.90
2022-10-12T01:05:24.093Z,99.90
2022-10-12T01:07:51.420Z,99.90
2022-10-12T01:10:18.322Z,99.90
2022-10-12T01:12:49.519Z,99.90
2022-10-12T01:15:16.812Z,99.90
2022-10-12T01:18:06.264Z,99.90
2022-10-12T01:20:54.198Z,99.90
2022-10-12T01:23:38.734Z,99.90
2022-10-12T01:26:48.221Z,99.90
2022-10-12T01:30:01.674Z,99.90
2022-10-12T01:32:58.500Z,99.90
2022-10-12T01:36:00.468Z,99.90
2022-10-12T01:38:46.300Z,99.90
2022-10-12T01:41:28.544Z,99.90
2022-10-12T01:43:55.271Z,99.90
2022-10-12T01:46:24.973Z,99.90
2022-10-12T01:48:56.898Z,99.90
2022-10-12T01:51:38.916Z,99.90
2022-10-12T01:54:30.104Z,99.90
2022-10-12T01:57:40.302Z,99.90
2022-10-12T02:00:11.684Z,99.90
2022-10-12T02:02:54.736Z,99.90
2022-10-12T02:05:37.901Z,99.90
2022-10-12T02:08:18.604Z,99.90
2022-10-12T02:11:14.221Z,99.90
2022-10-12T02:14:08.948Z,99.90
2022-10-12T02:16:47.589Z,99.90
2022-10-12T02:19:21.625Z,99.90
2022-10-12T02:21:51.215Z,99.90
2022-10-12T02:24:20.371Z,99.90
2022-10-12T02:26:52.553Z,99.90
2022-10-12T02:29:33.988Z,99.90
2022-10-12T02:32:39.479Z,99.90
2022-10-12T02:35:16.005Z,99.90
2022-10-12T02:37:46.470Z,99.90
2022-10-12T02:40:30.164Z,99.90
2022-10-12T02:43:11.179Z,99.90
2022-10-12T02:45:44.863Z,99.90
2022-10-12T02:48:17.563Z,99.90
2022-10-12T02:50:45.850Z,99.90
2022-10-12T02:53:13.537Z,99.90
2022-10-12T02:56:06.976Z,99.90
2022-10-12T02:58:33.861Z,99.90
2022-10-12T03:01:00.671Z,99.90
2022-10-12T03:03:27.521Z,99.90
2022-10-12T03:05:54.539Z,99.90
2022-10-12T03:08:21.319Z,99.90
2022-10-12T03:10:48.041Z,99.90
2022-10-12T03:13:14.775Z,99.90
2022-10-12T03:15:41.546Z,99.90
2022-10-12T03:18:08.312Z,99.90
2022-10-12T03:20:35.079Z,99.90
2022-10-12T03:23:01.939Z,99.90
2022-10-12T03:25:28.844Z,99.90
2022-10-12T03:27:55.577Z,99.90
2022-10-12T03:30:22.291Z,99.90
2022-10-12T03:32:49.083Z,99.90
2022-10-12T03:35:15.992Z,99.90
2022-10-12T03:37:42.749Z,99.90
2022-10-12T03:40:10.404Z,99.90
2022-10-12T03:42:37.121Z,99.90
2022-10-12T03:45:04.931Z,99.90
2022-10-12T03:47:31.680Z,99.90
2022-10-12T03:49:58.386Z,99.90
2022-10-12T03:52:25.178Z,99.90
2022-10-12T03:54:51.882Z,99.90
2022-10-12T03:57:18.628Z,99.90
2022-10-12T03:59:45.386Z,99.90
2022-10-12T04:02:16.644Z,99.90
2022-10-12T04:04:44.381Z,99.90
2022-10-12T04:07:11.478Z,99.90
2022-10-12T04:09:38.318Z,99.90
2022-10-12T04:12:05.325Z,99.90
2022-10-12T04:14:32.023Z,99.90
2022-10-12T04:16:59.717Z,99.90
2022-10-12T04:19:26.484Z,99.90
2022-10-12T04:21:53.186Z,99.90
2022-10-12T04:24:20.284Z,99.90
2022-10-12T04:26:46.977Z,99.90
2022-10-12T04:29:14.270Z,99.90
2022-10-12T04:31:42.115Z,99.90
2022-10-12T04:34:12.025Z,99.90
2022-10-12T04:36:39.342Z,99.90
2022-10-12T04:39:06.227Z,99.90
2022-10-12T04:41:33.238Z,99.90
2022-10-12T04:43:59.993Z,99.90
2022-10-12T04:46:26.842Z,99.90
2022-10-12T04:48:53.567Z,99.90
2022-10-12T04:51:20.348Z,99.90
2022-10-12T04:53:47.055Z,99.90
2022-10-12T04:56:13.842Z,99.90
2022-10-12T04:58:40.608Z,99.90
2022-10-12T05:01:07.387Z,99.90
2022-10-12T05:03:38.210Z,99.90
2022-10-12T05:06:07.870Z,99.90
2022-10-12T05:08:34.588Z,99.90
2022-10-12T05:11:01.672Z,99.90
2022-10-12T05:13:28.757Z,99.90
2022-10-12T05:15:55.497Z,99.90
2022-10-12T05:18:22.223Z,99.90
2022-10-12T05:20:52.181Z,99.90
2022-10-12T05:23:21.308Z,99.90
2022-10-12T05:25:48.048Z,99.90
2022-10-12T05:28:14.801Z,99.90
2022-10-12T05:30:41.605Z,99.90
2022-10-12T05:33:08.392Z,99.90
2022-10-12T05:35:35.222Z,99.90
2022-10-12T05:38:01.935Z,99.90
2022-10-12T05:40:28.767Z,99.90
2022-10-12T05:42:55.566Z,99.90
2022-10-12T05:45:22.335Z,99.90
2022-10-12T05:47:49.086Z,99.90
2022-10-12T05:50:15.966Z,99.90
2022-10-12T05:52:42.707Z,99.90
2022-10-12T05:55:09.717Z,99.90
2022-10-12T05:57:37.696Z,99.90
2022-10-12T06:00:08.388Z,99.90
2022-10-12T06:02:35.757Z,99.90
2022-10-12T06:05:03.200Z,99.90
2022-10-12T06:07:29.919Z,99.90
2022-10-12T06:09:56.863Z,99.90
2022-10-12T06:12:24.276Z,99.90
2022-10-12T06:14:52.233Z,99.90
2022-10-12T06:17:19.126Z,99.90
2022-10-12T06:19:45.991Z,99.90
2022-10-12T06:22:12.865Z,99.90
2022-10-12T06:24:39.593Z,99.90
2022-10-12T06:27:06.411Z,99.90
2022-10-12T06:29:33.711Z,99.90
2022-10-12T06:32:00.426Z,99.90
2022-10-12T06:34:27.206Z,99.90
2022-10-12T06:36:57.062Z,99.90
2022-10-12T06:39:26.234Z,99.90
2022-10-12T06:41:54.475Z,99.90
2022-10-12T06:44:22.440Z,99.90
2022-10-12T06:46:50.517Z,99.90
2022-10-12T06:49:20.318Z,99.90
2022-10-12T06:51:47.166Z,99.90
2022-10-12T06:54:14.075Z,99.90
2022-10-12T06:56:40.832Z,99.90
2022-10-12T06:59:08.346Z,99.90
2022-10-12T07:01:35.168Z,99.90
2022-10-12T07:04:02.111Z,99.90
2022-10-12T07:06:28.897Z,99.90
2022-10-12T07:08:55.880Z,99.90
2022-10-12T07:11:22.797Z,99.90
2022-10-12T07:13:49.535Z,99.90
2022-10-12T07:16:16.643Z,99.90
2022-10-12T07:18:43.447Z,99.90
2022-10-12T07:21:10.270Z,99.90
2022-10-12T07:23:40.197Z,99.90
2022-10-12T07:26:09.617Z,99.90
2022-10-12T07:28:37.235Z,99.90
2022-10-12T07:31:07.195Z,99.90
2022-10-12T07:33:36.205Z,99.90
2022-10-12T07:36:13.992Z,99.90
2022-10-12T07:38:45.797Z,99.90
2022-10-12T07:41:13.093Z,99.90
2022-10-12T07:43:39.884Z,99.90
2022-10-12T07:46:07.424Z,99.90
2022-10-12T07:48:34.757Z,99.90
2022-10-12T07:51:10.277Z,99.90
2022-10-12T07:53:39.353Z,99.90
2022-10-12T07:56:15.150Z,99.90
2022-10-12T07:58:56.369Z,99.90
2022-10-12T08:01:27.757Z,99.90
2022-10-12T08:04:00.308Z,99.70
2022-10-12T08:06:32.421Z,99.00
2022-10-12T08:09:01.217Z,98.50
2022-10-12T08:11:29.600Z,98.20
2022-10-12T08:13:56.567Z,98.30
2022-10-12T08:16:24.101Z,98.70
2022-10-12T08:18:51.786Z,98.30
2022-10-12T08:21:19.083Z,98.60
2022-10-12T08:23:46.606Z,98.00
2022-10-12T08:26:15.758Z,98.10
2022-10-12T08:28:43.263Z,97.70
2022-10-12T08:31:14.786Z,97.60
2022-10-12T08:33:41.779Z,97.10
2022-10-12T08:36:09.183Z,96.60
2022-10-12T08:38:38.990Z,96.70
2022-10-12T08:41:39.704Z,96.60
2022-10-12T08:44:46.605Z,95.70
2022-10-12T08:47:38.693Z,95.80
2022-10-12T08:50:16.370Z,94.30
2022-10-12T08:52:56.173Z,92.20
2022-10-12T08:55:39.511Z,93.60
2022-10-12T08:58:36.622Z,93.30
2022-10-12T09:01:28.781Z,92.30
2022-10-12T09:04:20.505Z,91.70
2022-10-12T09:07:18.250Z,91.10
2022-10-12T09:10:02.659Z,90.20
2022-10-12T09:13:14.476Z,86.40
2022-10-12T09:15:49.412Z,88.30
2022-10-12T09:18:21.572Z,85.20
2022-10-12T09:20:54.697Z,83.70
2022-10-12T09:23:31.960Z,83.80
2022-10-12T09:26:10.840Z,83.90
2022-10-12T09:28:55.892Z,81.50
2022-10-12T09:31:51.921Z,81.10
2022-10-12T09:34:19.695Z,80.50
2022-10-12T09:36:46.692Z,81.10
2022-10-12T09:39:28.890Z,78.20
2022-10-12T09:41:56.470Z,76.70
2022-10-12T09:44:40.130Z,76.40
2022-10-12T09:47:23.654Z,74.20
2022-10-12T09:49:58.849Z,74.80
2022-10-12T09:52:42.503Z,73.90
2022-10-12T09:55:15.934Z,71.20
2022-10-12T09:57:54.481Z,72.30
2022-10-12T10:00:33.262Z,71.60
2022-10-12T10:03:01.740Z,70.70
2022-10-12T10:05:34.212Z,71.10
2022-10-12T10:08:24.260Z,71.30
2022-10-12T10:10:57.813Z,71.90
2022-10-12T10:13:30.556Z,71.40
2022-10-12T10:16:11.352Z,71.40
2022-10-12T10:18:48.630Z,71.50
2022-10-12T10:21:36.792Z,71.40
2022-10-12T10:24:19.708Z,71.00
2022-10-12T10:27:01.983Z,71.80
2022-10-12T10:29:40.714Z,71.90
2022-10-12T10:32:26.451Z,71.30
2022-10-12T10:35:22.053Z,72.50
2022-10-12T10:37:56.107Z,72.10
2022-10-12T10:40:26.134Z,70.90
2022-10-12T10:43:00.347Z,69.80
2022-10-12T10:45:32.783Z,69.60
2022-10-12T10:48:09.125Z,69.70
2022-10-12T10:50:40.797Z,69.50
2022-10-12T10:53:20.786Z,68.00
2022-10-12T10:56:05.519Z,68.20
2022-10-12T10:58:41.788Z,69.00
2022-10-12T11:01:32.477Z,70.70
2022-10-12T11:04:19.973Z,70.70
2022-10-12T11:06:56.437Z,71.60
2022-10-12T11:09:40.406Z,71.40
2022-10-12T11:12:16.215Z,71.00
2022-10-12T11:14:58.454Z,71.10
2022-10-12T11:17:43.962Z,71.60
2022-10-12T11:20:47.887Z,73.00
2022-10-12T11:23:27.071Z,73.60
2022-10-12T11:26:17.522Z,74.40
2022-10-12T11:28:44.547Z,75.70
2022-10-12T11:31:28.645Z,76.30
2022-10-12T11:33:59.460Z,77.20
2022-10-12T11:36:30.499Z,77.20
2022-10-12T11:39:08.018Z,78.40
2022-10-12T11:42:03.222Z,79.60
2022-10-12T11:44:47.641Z,80.60
2022-10-12T11:47:38.549Z,80.80
2022-10-12T11:50:38.783Z,80.70
2022-10-12T11:53:41.849Z,80.70
2022-10-12T11:56:23.260Z,80.60
2022-10-12T11:59:01.129Z,80.00
2022-10-12T12:01:47.070Z,79.30
2022-10-12T12:04:44.140Z,80.00
2022-10-12T12:07:23.031Z,80.60
2022-10-12T12:09:51.339Z,81.00
2022-10-12T12:12:32.238Z,81.00
2022-10-12T12:15:05.274Z,82.00
2022-10-12T12:17:34.298Z,81.90
2022-10-12T12:20:23.586Z,82.30
2022-10-12T12:22:54.715Z,82.20
2022-10-12T12:25:33.144Z,82.70
2022-10-12T12:28:25.538Z,83.40
2022-10-12T12:31:01.386Z,82.50
2022-10-12T12:33:35.123Z,83.60
2022-10-12T12:36:38.454Z,83.90
2022-10-12T12:39:20.339Z,83.30
2022-10-12T12:42:01.350Z,83.60
2022-10-12T12:44:38.249Z,84.00
2022-10-12T12:47:20.558Z,84.30
2022-10-12T12:50:00.501Z,84.80
2022-10-12T12:52:39.505Z,86.00
2022-10-12T12:55:34.317Z,85.80
2022-10-12T12:58:31.129Z,85.10
2022-10-12T13:01:20.126Z,85.30
2022-10-12T13:04:32.884Z,84.90
2022-10-12T13:07:17.702Z,85.50
2022-10-12T13:10:28.039Z,85.00
2022-10-12T13:13:22.131Z,82.80
2022-10-12T13:19:37.318Z,83.10
2022-10-12T13:22:31.817Z,83.30
2022-10-12T13:25:12.873Z,83.40
2022-10-12T13:27:49.097Z,83.80
2022-10-12T13:30:41.078Z,84.30
2022-10-12T13:33:11.246Z,84.60
2022-10-12T13:35:55.559Z,85.10
2022-10-12T13:38:26.685Z,86.10
2022-10-12T13:41:07.039Z,85.30
2022-10-12T13:43:36.465Z,85.80
2022-10-12T13:46:03.858Z,86.00
2022-10-12T13:48:54.308Z,86.20
2022-10-12T13:51:30.946Z,87.30
2022-10-12T13:53:58.105Z,87.90
2022-10-12T13:56:28.937Z,88.70
2022-10-12T13:59:06.715Z,87.90
2022-10-12T14:02:02.909Z,88.20
2022-10-12T14:04:35.069Z,88.20
2022-10-12T14:07:17.867Z,88.80
2022-10-12T14:09:52.623Z,89.40
2022-10-12T14:12:25.209Z,88.90
2022-10-12T14:14:53.750Z,87.80
2022-10-12T14:17:21.544Z,88.50
2022-10-12T14:19:55.151Z,89.00
2022-10-12T14:22:33.193Z,89.00
2022-10-12T14:25:20.308Z,88.80
2022-10-12T14:27:54.353Z,89.00
2022-10-12T14:30:28.559Z,89.00
2022-10-12T14:33:09.792Z,89.10
2022-10-12T14:35:41.940Z,88.80
2022-10-12T14:38:49.445Z,88.90
2022-10-12T14:41:42.761Z,89.20
2022-10-12T14:44:10.828Z,90.00
2022-10-12T14:46:41.755Z,90.00
2022-10-12T14:49:19.650Z,90.30
2022-10-12T14:51:48.455Z,90.10
2022-10-12T14:54:15.754Z,90.10
2022-10-12T14:56:42.475Z,90.30
2022-10-12T14:59:09.659Z,90.60
2022-10-12T15:01:40.954Z,90.90
2022-10-12T15:04:13.359Z,91.00
2022-10-12T15:06:40.538Z,91.50
2022-10-12T15:09:07.305Z,91.40
2022-10-12T15:11:34.082Z,91.80
2022-10-12T15:14:00.817Z,92.00
2022-10-12T15:16:29.430Z,92.30
2022-10-12T15:18:56.214Z,92.60
2022-10-12T15:21:23.094Z,92.90
2022-10-12T15:23:50.305Z,93.00
2022-10-12T15:26:18.644Z,93.20
2022-10-12T15:28:45.618Z,93.40
2022-10-12T15:31:17.808Z,93.60
2022-10-12T15:33:45.376Z,93.90
2022-10-12T15:36:12.422Z,94.00
2022-10-12T15:38:39.804Z,94.30
2022-10-12T15:41:18.209Z,94.60
2022-10-12T15:43:45.001Z,94.90
2022-10-12T15:46:12.279Z,95.30
2022-10-12T15:48:40.287Z,95.60
2022-10-12T15:51:18.214Z,96.10
2022-10-12T15:53:45.037Z,96.50
2022-10-12T15:56:15.057Z,96.90
2022-10-12T15:58:42.518Z,97.60
2022-10-12T16:01:15.190Z,97.80
2022-10-12T16:03:42.623Z,98.20
2022-10-12T16:06:10.817Z,98.60
2022-10-12T16:08:37.813Z,98.90
2022-10-12T16:11:14.437Z,99.20
2022-10-12T16:13:47.950Z,99.60
2022-10-12T16:16:17.715Z,99.50
2022-10-12T16:18:44.914Z,99.80
2022-10-12T16:21:12.110Z,99.90
2022-10-12T16:23:40.525Z,99.90
2022-10-12T16:26:14.457Z,99.90
2022-10-12T16:28:41.807Z,99.90
2022-10-12T16:31:12.380Z,99.90
2022-10-12T16:33:39.612Z,99.90
2022-10-12T16:36:15.725Z,99.90
2022-10-12T16:38:43.868Z,99.90
2022-10-12T16:41:16.717Z,99.90
2022-10-12T16:43:44.185Z,99.90
2022-10-12T16:46:10.949Z,99.90
2022-10-12T16:48:37.810Z,99.90
2022-10-12T16:51:13.481Z,99.90
2022-10-12T16:53:42.378Z,99.90
2022-10-12T16:56:09.666Z,99.90
2022-10-12T16:58:36.380Z,99.90
2022-10-12T17:01:12.424Z,99.90
2022-10-12T17:03:40.520Z,99.90
2022-10-12T17:06:08.101Z,99.90
2022-10-12T17:08:36.106Z,99.90
2022-10-12T17:11:13.593Z,99.90
2022-10-12T17:13:45.191Z,99.90
2022-10-12T17:16:33.492Z,99.90
2022-10-12T17:19:00.392Z,99.90
2022-10-12T17:21:28.071Z,99.90
2022-10-12T17:24:00.409Z,99.90
2022-10-12T17:26:27.976Z,99.90
2022-10-12T17:28:55.474Z,99.90
2022-10-12T17:31:22.335Z,99.90
2022-10-12T17:33:49.232Z,99.90
2022-10-12T17:36:16.161Z,99.90
2022-10-12T17:38:42.903Z,99.90
2022-10-12T17:41:09.671Z,99.90
2022-10-12T17:43:36.373Z,99.90
2022-10-12T17:46:06.065Z,99.90
2022-10-12T17:48:33.248Z,99.90
2022-10-12T17:51:06.020Z,99.90
2022-10-12T17:53:32.782Z,99.90
2022-10-12T17:56:04.451Z,99.90
2022-10-12T17:58:31.560Z,99.90
2022-10-12T18:01:05.052Z,99.90
2022-10-12T18:03:31.900Z,99.90
2022-10-12T18:06:12.368Z,99.90
2022-10-12T18:08:39.665Z,99.90
2022-10-12T18:11:07.753Z,99.90
2022-10-12T18:13:36.179Z,99.90
2022-10-12T18:16:09.821Z,99.90
2022-10-12T18:18:38.181Z,99.90
2022-10-12T18:21:11.433Z,99.90
2022-10-12T18:23:38.195Z,99.90
2022-10-12T18:26:07.848Z,99.90
2022-10-12T18:28:35.317Z,99.90
2022-10-12T18:31:02.702Z,99.90
2022-10-12T18:33:29.926Z,99.90
2022-10-12T18:36:04.283Z,99.90
2022-10-12T18:38:32.093Z,99.90
2022-10-12T18:41:28.158Z,99.90
2022-10-12T18:44:00.548Z,99.90
2022-10-12T18:46:34.670Z,99.90
2022-10-12T18:49:05.230Z,99.90
2022-10-12T18:51:39.713Z,99.90
2022-10-12T18:54:11.549Z,99.90
2022-10-12T18:56:38.944Z,99.90
2022-10-12T18:59:07.068Z,99.90
2022-10-12T19:01:34.477Z,99.90
2022-10-12T19:04:02.602Z,99.90
2022-10-12T19:06:37.022Z,99.90
2022-10-12T19:09:05.509Z,99.90
2022-10-12T19:11:32.556Z,99.90
2022-10-12T19:14:06.906Z,99.90
2022-10-12T19:16:35.432Z,99.90
2022-10-12T19:19:06.720Z,99.90
2022-10-12T19:21:34.283Z,99.90
2022-10-12T19:24:06.598Z,99.90
2022-10-12T19:26:34.878Z,99.90
2022-10-12T19:29:02.110Z,99.90
2022-10-12T19:31:42.728Z,99.90
2022-10-12T19:34:13.265Z,99.90
2022-10-12T19:36:40.689Z,99.90
2022-10-12T19:39:13.461Z,99.90
2022-10-12T19:41:40.642Z,99.90
2022-10-12T19:44:07.832Z,99.90
2022-10-12T19:46:34.939Z,99.90
2022-10-12T19:49:01.802Z,99.90
2022-10-12T19:51:31.132Z,99.90
2022-10-12T19:54:01.570Z,99.90
2022-10-12T19:56:28.808Z,99.90
2022-10-12T19:58:57.821Z,99.90
2022-10-12T20:01:33.430Z,99.90
2022-10-12T20:04:01.569Z,99.90
2022-10-12T20:06:30.011Z,99.90
2022-10-12T20:09:00.026Z,99.90
2022-10-12T20:11:26.839Z,99.90
2022-10-12T20:13:55.068Z,99.90
2022-10-12T20:16:22.161Z,99.90
2022-10-12T20:18:50.377Z,99.90
2022-10-12T20:21:20.957Z,99.90
2022-10-12T20:23:48.286Z,99.90
2022-10-12T20:26:22.283Z,99.90
2022-10-12T20:28:50.303Z,99.90
2022-10-12T20:31:19.244Z,99.90
2022-10-12T20:33:52.252Z,99.90
2022-10-12T20:36:28.109Z,99.90
2022-10-12T20:38:56.477Z,99.90
2022-10-12T20:41:24.497Z,99.90
2022-10-12T20:43:57.226Z,99.90
2022-10-12T20:46:25.525Z,99.90
2022-10-12T20:48:58.711Z,99.90
2022-10-12T20:51:35.980Z,99.90
2022-10-12T20:54:05.723Z,99.90
2022-10-12T20:56:34.411Z,99.90
2022-10-12T20:59:01.946Z,99.90
2022-10-12T21:01:29.584Z,99.90
2022-10-12T21:03:56.690Z,99.90
2022-10-12T21:06:24.009Z,99.90
2022-10-12T21:08:53.515Z,99.90
2022-10-12T21:11:21.536Z,99.90
2022-10-12T21:13:48.342Z,99.90
2022-10-12T21:16:15.822Z,99.90
2022-10-12T21:18:43.030Z,99.90
2022-10-12T21:21:20.121Z,99.90
2022-10-12T21:23:58.981Z,99.90
2022-10-12T21:26:29.282Z,99.90
2022-10-12T21:28:56.317Z,99.90
2022-10-12T21:31:25.219Z,99.90
2022-10-12T21:33:55.109Z,99.90
2022-10-12T21:36:25.002Z,99.90
2022-10-12T21:38:52.005Z,99.90
2022-10-12T21:41:23.556Z,99.90
2022-10-12T21:43:51.529Z,99.90
2022-10-12T21:46:25.145Z,99.90
2022-10-12T21:48:53.065Z,99.90
2022-10-12T21:51:23.195Z,99.90
2022-10-12T21:53:50.739Z,99.90
2022-10-12T21:56:31.840Z,99.90
2022-10-12T21:59:01.495Z,99.90
2022-10-12T22:01:37.079Z,99.90
2022-10-12T22:04:07.712Z,99.90
2022-10-12T22:06:35.152Z,99.90
2022-10-12T22:09:09.781Z,99.90
2022-10-12T22:11:37.983Z,99.90
2022-10-12T22:14:08.787Z,99.90
2022-10-12T22:16:36.973Z,99.90
2022-10-12T22:19:07.742Z,99.90
2022-10-12T22:21:36.379Z,99.90
2022-10-12T22:24:03.747Z,99.90
2022-10-12T22:26:30.700Z,99.90
2022-10-12T22:28:58.011Z,99.90
2022-10-12T22:31:25.119Z,99.90
2022-10-12T22:33:53.321Z,99.90
2022-10-12T22:36:20.240Z,99.90
2022-10-12T22:38:47.268Z,99.90
2022-10-12T22:41:18.415Z,99.90
2022-10-12T22:43:45.306Z,99.90
2022-10-12T22:46:12.463Z,99.90
2022-10-12T22:48:39.353Z,99.90
2022-10-12T22:51:07.855Z,99.90
2022-10-12T22:53:35.590Z,99.90
2022-10-12T22:56:15.660Z,99.90
2022-10-12T22:58:42.866Z,99.90
2022-10-12T23:01:14.022Z,99.90
2022-10-12T23:03:41.298Z,99.90
2022-10-12T23:06:09.999Z,99.90
2022-10-12T23:08:37.057Z,99.90
2022-10-12T23:11:11.838Z,99.90
2022-10-12T23:13:40.308Z,99.90
2022-10-12T23:16:17.466Z,99.90
2022-10-12T23:18:44.665Z,99.90
2022-10-12T23:21:15.856Z,99.90
2022-10-12T23:23:44.924Z,99.90
2022-10-12T23:26:21.617Z,99.90
2022-10-12T23:28:50.170Z,99.90
2022-10-12T23:31:20.755Z,99.90
2022-10-12T23:33:47.844Z,99.90
2022-10-12T23:36:17.318Z,99.90
2022-10-12T23:38:45.465Z,99.90
2022-10-12T23:41:13.634Z,99.90
2022-10-12T23:43:40.648Z,99.90
2022-10-12T23:46:08.388Z,99.90
2022-10-12T23:48:35.293Z,99.90
2022-10-12T23:51:02.346Z,99.90
2022-10-12T23:53:29.181Z,99.90
2022-10-12T23:55:56.416Z,99.90
2022-10-12T23:58:23.265Z,99.90
